Station: Campania  

  Atmospheric Gas Attenuation - ITU Rec 676-11   ----------------- dB/100km -----------------
Date Time Temp RH % AH g/m3 Dew Point Wind Direction Speed kph Gust kph Barometer mB Rainfall Since 9am 24GHz 47GHz 76GHz 122GHz 134GHz 241GHz
08/05 12:30 14.1 52 6.31 4.4 24 43 1013.1 0 14.7 22.3 30.9 80.6 69.2 236.0
08/05 12:20 13.7 52 6.16 4 22 35 1013.1 0 14.4 22.1 30.5 79.6 67.7 230.8
08/05 12:10 14 49 5.91 3.5 17 20 1013.1 0 13.9 21.7 29.5 76.9 64.5 219.5
08/05 12:00 14.3 50 6.14 4 24 37 1013.1 0 14.3 22.0 30.2 78.8 66.9 228.3
08/05 11:50 13.9 52 6.23 4.2 22 28 1013.1 0 14.5 22.2 30.7 80.1 68.4 233.2
08/05 11:40 14.8 52 6.59 5.1 20 28 1013.1 0 15.3 22.5 31.6 82.7 71.9 245.8
08/05 11:30 14 54 6.51 4.9 20 43 1013.1 0 15.1 22.6 31.7 82.7 71.7 244.8
08/05 11:20 14.2 52 6.35 4.5 13 15 1013.1 0 14.8 22.3 31.0 80.9 69.5 237.4
08/05 11:10 14 52 6.27 4.3 20 26 1013.1 0 14.6 22.2 30.8 80.4 68.8 234.6
08/05 11:00 13.5 53 6.2 4.1 26 44 1013.1 0 14.5 22.2 30.7 80.2 68.3 233.1
08/05 10:50 13.6 54 6.36 4.5 22 26 1013.1 0 14.8 22.5 31.3 81.6 70.2 239.6
08/05 10:40 13.4 55 6.39 4.6 20 26 1013.1 0 14.9 22.6 31.4 82.1 70.7 241.5
08/05 10:30 13.3 55 6.35 4.5 32 50 1013.1 0 14.8 22.5 31.3 81.8 70.3 240.1
08/05 10:20 13 54 6.12 3.9 39 44 1013.1 0 14.3 22.3 30.6 79.9 67.8 231.1
08/05 10:10 12.6 55 6.09 3.8 44 59 1013.1 0 14.3 22.3 30.6 80.0 67.8 231.0
08/05 10:00 12.7 57 6.35 4.4 26 39 1013.1 0 14.8 22.7 31.6 82.5 70.9 241.9
08/05 09:50 12.5 57 6.27 4.2 26 32 1013.1 0 14.7 22.6 31.3 81.9 70.1 239.0
08/05 09:40 12.4 56 6.12 3.9 28 32 1013.1 0 14.4 22.4 30.8 80.5 68.3 232.9
08/05 09:30 12 58 6.18 4 22 35 1013.1 0 14.5 22.6 31.2 81.5 69.4 236.6
08/05 09:20 12 57 6.08 3.8 22 28 1013.1 0 14.3 22.4 30.8 80.5 68.2 232.3
08/05 09:10 12.1 57 6.11 3.9 28 37 1013.1 0 14.4 22.5 30.9 80.7 68.5 233.3
08/05 09:00 11.8 60 6.32 4.3 22 33 1013.1 0 14.8 22.8 31.8 83.1 71.3 243.3
08/05 08:50 11.9 58 6.14 3.9 26 35 1013.1 0.2 14.4 22.6 31.1 81.2 69.0 235.2
08/05 08:40 11.9 60 6.36 4.4 24 41 1013.1 0.2 14.9 22.9 31.9 83.4 71.7 244.8
08/05 08:30 11.7 61 6.38 4.4 20 39 1013.1 0.2 14.9 23.0 32.1 83.8 72.2 246.2
08/05 08:20 11.6 62 6.45 4.6 22 28 1013.1 0.2 15.1 23.1 32.4 84.6 73.1 249.6
08/05 08:10 11.5 63 6.51 4.7 24 28 1013.1 0.2 15.2 23.2 32.6 85.3 74.0 252.6
08/05 08:00 11.4 63 6.47 4.6 20 32 1013.1 0.2 15.1 23.2 32.5 85.0 73.6 251.1
08/05 07:50 11.4 62 6.36 4.4 17 26 1013.1 0.2 14.9 23.0 32.1 83.9 72.2 246.3
08/05 07:40 11.2 64 6.49 4.7 22 28 1013.1 0.2 15.2 23.3 32.7 85.5 74.0 252.7
08/05 07:30 11.2 64 6.49 4.7 22 28 1013.1 0.2 15.2 23.3 32.7 85.5 74.0 252.7
08/05 07:20 11.1 66 6.65 5 22 28 1013.1 0.2 15.5 23.5 33.4 87.2 76.1 260.1
08/05 07:10 11 67 6.71 5.1 20 24 1013.1 0.2 15.7 23.7 33.6 87.9 77.0 263.1
08/05 07:00 11 67 6.71 5.1 17 24 1013.1 0.2 15.7 23.7 33.6 87.9 77.0 263.1
08/05 06:50 10.9 68 6.77 5.2 17 20 1013.1 0.2 15.8 23.8 33.9 88.7 77.8 266.1
08/05 06:40 11 68 6.81 5.3 20 26 1013.1 0.2 15.9 23.8 34.0 89.0 78.3 267.6
08/05 06:30 11 67 6.71 5.1 17 26 1013.1 0.2 15.7 23.7 33.6 87.9 77.0 263.1
08/05 06:20 11 68 6.81 5.3 15 17 1013.1 0.2 15.9 23.8 34.0 89.0 78.3 267.6
08/05 06:10 10.7 70 6.88 5.5 17 26 1013.1 0.2 16.0 24.0 34.4 90.0 79.5 271.8
08/05 06:00 10.7 70 6.88 5.5 15 22 1013.1 0.2 16.0 24.0 34.4 90.0 79.5 271.8
08/05 05:50 10.9 69 6.86 5.4 15 20 1013.1 0.2 16.0 23.9 34.2 89.6 79.0 270.2
08/05 05:40 10.8 70 6.92 5.6 22 26 1013.1 0.2 16.1 24.0 34.5 90.3 79.9 273.2
08/05 05:30 10.8 69 6.82 5.3 20 28 1013.1 0.2 15.9 23.9 34.1 89.3 78.6 268.7
08/05 05:20 11.3 65 6.63 5 17 22 1013.1 0.2 15.5 23.5 33.2 86.8 75.7 258.5
08/05 05:10 11.6 62 6.45 4.6 24 35 1013.1 0.2 15.1 23.1 32.4 84.6 73.1 249.6
08/05 05:00 11.8 61 6.42 4.5 11 24 1013.1 0.2 15.0 23.0 32.2 84.1 72.6 247.7
08/05 04:50 11.5 64 6.61 4.9 20 24 1013.1 0.2 15.4 23.4 33.0 86.4 75.2 257.0
08/05 04:40 11.7 64 6.69 5.1 15 20 1013.1 0.2 15.6 23.4 33.3 87.0 76.0 259.9
08/05 04:30 11.7 63 6.59 4.9 20 37 1013.1 0.2 15.4 23.3 32.9 85.9 74.8 255.5
08/05 04:20 11.9 62 6.57 4.9 22 30 1013.1 0.2 15.3 23.2 32.7 85.5 74.3 254.0
08/05 04:10 12.1 60 6.44 4.6 11 17 1013.1 0.2 15.1 23.0 32.1 84.0 72.5 247.6
08/05 04:00 11.9 63 6.67 5.1 20 30 1013.1 0.2 15.6 23.4 33.1 86.5 75.6 258.4
08/05 03:50 12 61 6.5 4.7 20 24 1013.1 0.2 15.2 23.1 32.4 84.7 73.4 250.6
08/05 03:40 12.4 59 6.45 4.6 24 41 1013.1 0.2 15.1 22.9 32.1 83.8 72.4 247.1
08/05 03:30 12 63 6.71 5.2 19 28 1013.1 0.2 15.6 23.4 33.2 86.8 76.0 259.8
08/05 03:20 11.9 65 6.88 5.5 19 20 1013.1 0.2 16.0 23.7 33.9 88.7 78.3 267.7
08/05 03:10 12 65 6.93 5.6 17 22 1013.1 0.2 16.1 23.7 34.1 89.1 78.8 269.6
08/05 03:00 12 65 6.93 5.6 15 22 1013.1 0.2 16.1 23.7 34.1 89.1 78.8 269.6
08/05 02:50 12 66 7.03 5.9 17 19 1013.1 0.2 16.3 23.9 34.4 90.1 80.1 274.0
08/05 02:40 12 66 7.03 5.9 15 17 1013.1 0.2 16.3 23.9 34.4 90.1 80.1 274.0
08/05 02:30 12 66 7.03 5.9 9 13 1013.1 0.2 16.3 23.9 34.4 90.1 80.1 274.0
08/05 02:20 12.3 66 7.17 6.1 11 17 1013.1 0.2 16.6 24.0 34.9 91.2 81.5 279.2
08/05 02:10 12.4 65 7.1 6 13 15 1013.1 0.2 16.4 23.9 34.5 90.4 80.5 275.8
08/05 02:00 12.5 65 7.15 6.1 17 28 1013.1 0.2 16.6 23.9 34.7 90.8 81.1 277.6
08/05 01:50 12.6 66 7.3 6.4 28 33 1013.1 0.2 16.9 24.2 35.2 92.2 82.9 284.0
08/05 01:40 12.4 69 7.54 6.9 13 17 1013.1 0.2 17.4 24.6 36.2 95.0 86.2 295.5
08/05 01:30 12.4 68 7.43 6.7 15 20 1013.1 0.2 17.2 24.4 35.8 93.8 84.8 290.6
08/05 01:20 12.5 67 7.37 6.5 20 26 1013.1 0.2 17.0 24.3 35.5 93.1 83.9 287.5
08/05 01:10 12.3 69 7.49 6.8 17 22 1013.1 0.2 17.3 24.5 36.1 94.6 85.7 293.7
08/05 01:00 12.3 68 7.38 6.6 17 30 1013.1 0.2 17.1 24.4 35.7 93.4 84.2 288.7
08/05 00:50 12.5 66 7.26 6.3 15 19 1013.1 0.2 16.8 24.1 35.1 91.9 82.5 282.6
08/05 00:40 12.5 66 7.26 6.3 15 20 1013.1 0.2 16.8 24.1 35.1 91.9 82.5 282.6
08/05 00:30 12.4 67 7.32 6.5 17 24 1013.1 0.2 16.9 24.2 35.4 92.7 83.4 285.6
08/05 00:20 12.4 67 7.32 6.5 15 19 1013.1 0.2 16.9 24.2 35.4 92.7 83.4 285.6
08/05 00:10 11.9 70 7.41 6.6 13 20 1013.1 0.2 17.1 24.5 36.0 94.2 85.1 291.5
08/05 00:00 11.9 70 7.41 6.6 15 20 1013.1 0.2 17.1 24.5 36.0 94.2 85.1 291.5
07/05 23:50 11.9 70 7.41 6.6 15 17 1013.1 0.2 17.1 24.5 36.0 94.2 85.1 291.5
07/05 23:40 12 69 7.35 6.5 17 20 1013.1 0.2 17.0 24.4 35.7 93.4 84.2 288.4
07/05 23:30 12.1 70 7.51 6.8 19 32 1013.1 0.2 17.3 24.6 36.3 95.0 86.1 295.3
07/05 23:20 11.8 71 7.47 6.7 13 17 1013.1 0.2 17.3 24.6 36.2 94.9 85.9 294.6
07/05 23:10 11.9 71 7.52 6.8 19 22 1013.1 0.2 17.4 24.7 36.4 95.4 86.5 296.5
07/05 23:00 11.5 72 7.44 6.6 15 22 1013.1 0.2 17.2 24.7 36.3 95.0 85.9 294.4
07/05 22:50 11.5 72 7.44 6.6 13 17 1013.1 0.2 17.2 24.7 36.3 95.0 85.9 294.4
07/05 22:40 11.6 72 7.48 6.7 13 15 1013.1 0.2 17.3 24.7 36.4 95.3 86.3 295.8
07/05 22:30 11.1 74 7.46 6.6 17 20 1013.1 0.2 17.3 24.8 36.5 95.7 86.6 296.8
07/05 22:20 10.9 74 7.36 6.5 13 17 1013.1 0.2 17.1 24.7 36.2 94.9 85.5 292.9
07/05 22:10 10.8 75 7.41 6.6 11 11 1013.1 0.2 17.2 24.8 36.5 95.5 86.3 295.6
07/05 22:00 11 73 7.31 6.4 15 22 1013.1 0.2 17.0 24.6 36.0 94.2 84.7 290.3
07/05 21:50 11 71 7.11 6 13 15 1013.1 0 16.5 24.3 35.2 92.1 82.1 281.1
07/05 21:40 10.4 71 6.84 5.4 9 13 1013.1 0 16.0 24.0 34.4 90.0 79.3 271.0
07/05 21:30 10.6 70 6.83 5.4 17 28 1013.1 0 15.9 23.9 34.3 89.6 78.9 269.8
07/05 21:20 10.6 69 6.74 5.2 20 30 1013.1 0 15.8 23.8 33.9 88.7 77.8 265.8
07/05 21:10 10.6 69 6.74 5.2 22 30 1013.1 0 15.8 23.8 33.9 88.7 77.8 265.8
07/05 21:00 10.5 68 6.6 4.9 19 32 1013.1 0 15.5 23.6 33.4 87.3 76.1 259.8
07/05 20:50 10.5 68 6.6 4.9 19 26 1013.1 0 15.5 23.6 33.4 87.3 76.1 259.8
07/05 20:40 10.4 66 6.36 4.3 19 24 1013.1 0 14.9 23.3 32.5 85.0 73.1 249.4
07/05 20:30 10.3 66 6.32 4.2 20 35 1013.1 0 14.9 23.2 32.4 84.7 72.7 247.9
07/05 20:20 9.8 69 6.4 4.4 22 28 1013.1 0 15.1 23.5 32.9 86.0 74.2 253.1
07/05 20:10 8.7 69 5.97 3.3 15 17 1013.1 0 14.2 23.1 31.7 82.8 69.7 237.2
07/05 20:00 8.8 69 6.01 3.4 17 24 1013.1 0 14.3 23.1 31.8 83.1 70.1 238.7

Last Refresh: 08-May-2026 12:09:24

Bureau of Meteorology